Time;durP1;ratioP1;P1;durP2;ratioP2;P2;SDS_P1;SDS_P2;PMS_P1;PMS_P2;Temp;Humidity;BMP_temperature;BMP_pressure;BME280_temperature;BME280_humidity;BME280_pressure;Samples;Min_cycle;Max_cycle;Signal;HPM_P1;HPM_P2
2024/01/07 00:00:23;;;;;;;11.50;7.43;;;;;;;1.78;100.00;101008.50;6050133;23;20182;-73
2024/01/07 00:02:50;;;;;;;7.03;6.47;;;;;;;1.17;100.00;100920.34;6032569;23;20034;-72
2024/01/07 00:05:17;;;;;;;8.20;5.82;;;;;;;0.78;100.00;100844.03;6052147;23;20193;-72
2024/01/07 00:07:43;;;;;;;7.35;5.32;;;;;;;1.23;100.00;100927.19;6044069;23;20473;-72
2024/01/07 00:10:09;;;;;;;6.32;5.72;;;;;;;1.35;100.00;100955.50;6031704;23;20025;-72
2024/01/07 00:12:36;;;;;;;7.05;6.43;;;;;;;1.38;100.00;100963.22;6053344;23;20030;-72
2024/01/07 00:15:03;;;;;;;6.57;6.05;;;;;;;1.34;100.00;100961.56;6050106;23;20145;-70
2024/01/07 00:17:29;;;;;;;7.35;5.53;;;;;;;1.73;100.00;101020.63;6054537;23;20097;-72
2024/01/07 00:19:56;;;;;;;5.35;4.93;;;;;;;1.21;100.00;100941.84;6027533;23;20371;-71
2024/01/07 00:22:22;;;;;;;11.75;6.65;;;;;;;1.79;100.00;101033.50;6025980;23;20458;-71
2024/01/07 00:24:49;;;;;;;7.60;5.97;;;;;;;1.71;100.00;101019.81;6026269;23;20034;-72
2024/01/07 00:27:15;;;;;;;11.30;9.35;;;;;;;1.75;100.00;101032.69;5998572;23;20392;-72
2024/01/07 00:29:42;;;;;;;14.70;5.50;;;;;;;1.76;100.00;101030.94;6023158;23;20080;-72
2024/01/07 00:32:08;;;;;;;5.97;5.55;;;;;;;1.21;100.00;100957.34;6053303;23;20022;-72
2024/01/07 00:34:35;;;;;;;6.68;6.07;;;;;;;1.61;100.00;101020.78;6053459;23;20038;-72
2024/01/07 00:37:02;;;;;;;10.20;8.57;;;;;;;1.78;100.00;101042.13;6047966;23;20014;-72
2024/01/07 00:39:28;;;;;;;7.70;7.13;;;;;;;1.80;100.00;101035.22;6028933;23;20027;-72
2024/01/07 00:41:55;;;;;;;4.60;4.22;;;;;;;1.79;100.00;101038.69;6054362;23;20144;-72
2024/01/07 00:44:21;;;;;;;6.47;4.93;;;;;;;1.77;100.00;101036.09;6023181;23;20023;-72
2024/01/07 00:46:48;;;;;;;7.40;5.30;;;;;;;1.80;100.00;101040.38;6050803;23;20477;-72
2024/01/07 00:49:15;;;;;;;9.07;5.93;;;;;;;1.77;100.00;101040.44;6020735;23;20042;-72
2024/01/07 00:51:41;;;;;;;4.43;4.15;;;;;;;1.65;100.00;101019.88;6052311;23;20024;-72
2024/01/07 00:54:08;;;;;;;6.47;5.72;;;;;;;1.78;100.00;101037.84;6026482;23;20511;-72
2024/01/07 00:56:34;;;;;;;7.03;6.35;;;;;;;1.73;100.00;101031.84;6050392;23;20363;-72
2024/01/07 00:59:01;;;;;;;6.07;5.57;;;;;;;0.51;100.00;100834.84;6052187;23;20018;-71
2024/01/07 01:01:27;;;;;;;5.38;4.95;;;;;;;1.38;100.00;100972.69;6023459;23;20096;-72
2024/01/07 01:03:54;;;;;;;4.28;4.07;;;;;;;1.78;100.00;101039.53;6052796;23;20090;-72
2024/01/07 01:06:21;;;;;;;5.07;4.72;;;;;;;1.82;100.00;101035.19;5996746;23;20019;-71
2024/01/07 01:08:47;;;;;;;4.32;4.00;;;;;;;1.74;100.00;101035.28;6048973;23;20367;-72
2024/01/07 01:11:14;;;;;;;7.18;6.63;;;;;;;1.77;100.00;101036.09;6051331;23;20419;-71
2024/01/07 01:13:40;;;;;;;7.63;5.97;;;;;;;1.47;100.00;100987.28;6051956;23;22631;-72
2024/01/07 01:16:06;;;;;;;4.20;3.92;;;;;;;1.74;100.00;101037.88;6057192;23;20090;-73
2024/01/07 01:18:35;;;;;;;5.85;5.45;;;;;;;1.11;100.00;100922.97;6027428;23;20073;-71
2024/01/07 01:21:02;;;;;;;6.65;6.25;;;;;;;1.74;100.00;101030.94;6054201;23;20030;-72
2024/01/07 01:23:28;;;;;;;5.13;4.80;;;;;;;1.71;100.00;101018.06;6028293;23;20043;-71
2024/01/07 01:25:55;;;;;;;6.10;5.13;;;;;;;1.29;100.00;100946.94;6059271;23;20044;-72
2024/01/07 01:28:21;;;;;;;6.07;5.47;;;;;;;1.70;100.00;101020.66;6054170;23;20424;-72
2024/01/07 01:30:47;;;;;;;7.18;5.75;;;;;;;1.56;100.00;101000.09;6028004;23;20023;-72
2024/01/07 01:33:14;;;;;;;7.00;6.50;;;;;;;1.72;100.00;101024.09;6032297;23;20377;-72
2024/01/07 01:35:41;;;;;;;7.03;6.10;;;;;;;1.43;100.00;100994.19;6055354;23;20030;-72
2024/01/07 01:38:07;;;;;;;6.38;5.90;;;;;;;1.71;100.00;101033.59;6058286;23;20089;-72
2024/01/07 01:40:34;;;;;;;6.03;5.40;;;;;;;1.68;100.00;101037.94;6032877;23;20072;-72
2024/01/07 01:43:00;;;;;;;6.90;6.45;;;;;;;1.72;100.00;101048.22;6050948;23;20022;-72
2024/01/07 01:45:27;;;;;;;6.03;5.45;;;;;;;1.60;100.00;101032.81;6032137;23;20446;-72
2024/01/07 01:47:54;;;;;;;6.05;5.60;;;;;;;1.66;100.00;101045.69;6056424;23;20379;-72
2024/01/07 01:50:20;;;;;;;5.65;4.80;;;;;;;1.71;100.00;101077.56;6028986;23;20081;-72
2024/01/07 01:52:47;;;;;;;5.00;4.68;;;;;;;1.75;100.00;101055.97;6057427;23;20021;-72
2024/01/07 01:55:14;;;;;;;6.70;6.30;;;;;;;1.32;100.00;100985.69;6050565;23;20207;-71
2024/01/07 01:57:41;;;;;;;7.20;5.53;;;;;;;1.70;100.00;101049.97;6028925;23;20037;-72
2024/01/07 02:00:08;;;;;;;4.82;4.43;;;;;;;1.33;100.00;100984.81;6036040;23;20086;-72
2024/01/07 02:02:34;;;;;;;7.25;6.22;;;;;;;1.80;100.00;101061.09;6056980;23;20436;-72
2024/01/07 02:05:03;;;;;;;6.70;6.18;;;;;;;1.28;100.00;100991.75;6030185;23;20022;-71
2024/01/07 02:07:30;;;;;;;8.15;5.53;;;;;;;1.17;100.00;100973.78;6036409;23;20469;-71
2024/01/07 02:09:57;;;;;;;4.90;4.50;;;;;;;1.61;100.00;101044.06;6054461;23;20014;-69
2024/01/07 02:12:23;;;;;;;5.32;4.82;;;;;;;1.24;100.00;100985.75;6057832;23;20023;-71
2024/01/07 02:14:50;;;;;;;5.70;5.15;;;;;;;1.56;100.00;101050.13;6057261;23;20034;-72
2024/01/07 02:17:17;;;;;;;6.40;5.93;;;;;;;1.27;100.00;101006.41;6025583;23;20019;-72
2024/01/07 02:19:44;;;;;;;4.60;4.20;;;;;;;0.88;100.00;100930.97;6054560;23;21103;-72
2024/01/07 02:22:11;;;;;;;8.07;4.97;;;;;;;1.57;100.00;101050.97;6028769;23;20374;-72
2024/01/07 02:24:37;;;;;;;4.90;4.60;;;;;;;1.30;100.00;101015.88;6054033;23;20342;-70
2024/01/07 02:27:04;;;;;;;7.63;6.90;;;;;;;1.62;100.00;101063.84;6054996;23;20049;-70
2024/01/07 02:29:30;;;;;;;5.88;5.50;;;;;;;1.26;100.00;101009.00;6054714;23;20291;-72
2024/01/07 02:31:56;;;;;;;4.65;4.35;;;;;;;1.54;100.00;101064.81;6050236;23;20022;-71
2024/01/07 02:34:23;;;;;;;6.93;6.20;;;;;;;1.47;100.00;101055.38;6037340;23;20021;-72
2024/01/07 02:36:49;;;;;;;6.80;6.25;;;;;;;1.60;100.00;101074.22;6057078;23;20096;-72
2024/01/07 02:39:18;;;;;;;6.78;6.10;;;;;;;1.44;100.00;101039.03;6051991;23;20155;-72
2024/01/07 02:41:45;;;;;;;4.95;4.65;;;;;;;1.24;100.00;101001.25;6056624;23;20026;-72
2024/01/07 02:44:12;;;;;;;5.53;4.50;;;;;;;1.64;100.00;101062.13;6053038;23;20025;-72
2024/01/07 02:46:39;;;;;;;4.30;4.00;;;;;;;1.64;100.00;101069.88;6055112;23;20387;-71
2024/01/07 02:49:05;;;;;;;8.98;8.13;;;;;;;0.86;100.00;100944.72;6052875;23;20624;-72
2024/01/07 02:51:32;;;;;;;7.72;6.43;;;;;;;1.64;100.00;101056.94;6031509;23;20159;-72
2024/01/07 02:53:58;;;;;;;5.90;5.45;;;;;;;1.57;100.00;101050.97;6055551;23;20042;-72
2024/01/07 02:56:25;;;;;;;5.80;5.30;;;;;;;1.28;100.00;100997.78;6031792;23;20030;-73
2024/01/07 02:58:51;;;;;;;5.78;5.03;;;;;;;1.58;100.00;101048.38;6055816;23;20071;-72
2024/01/07 03:01:21;;;;;;;6.28;5.20;;;;;;;1.61;100.00;101039.72;6053757;23;20034;-72
2024/01/07 03:03:47;;;;;;;4.00;3.72;;;;;;;1.72;100.00;101060.31;6056587;23;20033;-72
2024/01/07 03:06:14;;;;;;;5.72;5.15;;;;;;;1.47;100.00;101023.50;6051335;23;20054;-73
2024/01/07 03:08:42;;;;;;;9.75;7.40;;;;;;;1.58;100.00;101044.91;6055014;23;20105;-72
2024/01/07 03:11:09;;;;;;;7.35;6.75;;;;;;;1.64;100.00;101056.94;6020141;23;20032;-72
2024/01/07 03:13:35;;;;;;;9.02;4.88;;;;;;;1.45;100.00;101031.25;6056133;23;20026;-71
2024/01/07 03:16:01;;;;;;;5.38;4.78;;;;;;;1.26;100.00;101004.69;6055446;23;20147;-72
2024/01/07 03:18:31;;;;;;;6.10;5.60;;;;;;;1.14;100.00;100995.34;6035977;23;20014;-72
2024/01/07 03:20:57;;;;;;;6.68;4.60;;;;;;;0.86;100.00;100953.34;6052552;23;20627;-70
2024/01/07 03:23:24;;;;;;;12.88;5.25;;;;;;;1.14;100.00;101003.09;6056869;23;20014;-72
2024/01/07 03:25:50;;;;;;;4.20;4.00;;;;;;;0.88;100.00;100961.97;6034350;23;20115;-72
2024/01/07 03:28:17;;;;;;;5.63;5.13;;;;;;;1.49;100.00;101061.38;6056461;23;20040;-72
2024/01/07 03:30:43;;;;;;;5.50;5.20;;;;;;;1.25;100.00;101026.25;6049976;23;20010;-72
2024/01/07 03:33:10;;;;;;;7.88;6.38;;;;;;;1.44;100.00;101063.16;6033697;23;20530;-71
2024/01/07 03:35:36;;;;;;;4.88;4.47;;;;;;;1.35;100.00;101065.81;6053369;23;20046;-71
2024/01/07 03:38:03;;;;;;;8.95;4.75;;;;;;;1.38;100.00;101082.19;6057095;23;20026;-69
2024/01/07 03:40:30;;;;;;;8.13;6.70;;;;;;;1.29;100.00;101083.97;6025569;23;20034;-70
2024/01/07 03:42:56;;;;;;;5.28;4.57;;;;;;;1.23;100.00;101087.47;6055042;23;20089;-73
2024/01/07 03:45:22;;;;;;;5.20;4.75;;;;;;;1.26;100.00;101096.91;6027306;23;20140;-72
2024/01/07 03:47:49;;;;;;;5.53;5.05;;;;;;;1.24;100.00;101109.84;6056405;23;20088;-72
2024/01/07 03:50:16;;;;;;;4.97;4.57;;;;;;;1.23;100.00;101107.28;6026276;23;20034;-73
2024/01/07 03:52:42;;;;;;;4.82;4.43;;;;;;;1.07;100.00;101085.84;6055478;23;20054;-72
2024/01/07 03:55:08;;;;;;;7.75;7.03;;;;;;;1.23;100.00;101118.47;6053017;23;20077;-72
2024/01/07 03:57:35;;;;;;;6.78;6.10;;;;;;;1.28;100.00;101128.78;6028952;23;20057;-71
2024/01/07 04:00:02;;;;;;;9.52;4.68;;;;;;;0.17;100.00;100944.34;6047831;23;20014;-71
2024/01/07 04:02:28;;;;;;;5.45;5.05;;;;;;;1.31;100.00;101131.38;6026643;23;20019;-71
2024/01/07 04:04:54;;;;;;;3.75;3.55;;;;;;;1.35;100.00;101127.88;6055463;23;20022;-72
2024/01/07 04:07:21;;;;;;;5.78;5.13;;;;;;;1.39;100.00;101132.16;6052460;23;20339;-72
2024/01/07 04:09:47;;;;;;;5.60;4.93;;;;;;;1.38;100.00;101120.97;6026614;23;20081;-71
2024/01/07 04:12:14;;;;;;;5.03;4.63;;;;;;;1.12;100.00;101086.66;6054083;23;20022;-71
2024/01/07 04:14:40;;;;;;;6.65;5.78;;;;;;;1.37;100.00;101110.63;6055562;23;20414;-71
2024/01/07 04:17:08;;;;;;;7.30;6.63;;;;;;;0.80;100.00;101033.47;6055100;23;20121;-70
2024/01/07 04:19:38;;;;;;;6.95;6.22;;;;;;;1.26;100.00;101112.44;6028280;23;20137;-71
2024/01/07 04:22:04;;;;;;;4.93;4.53;;;;;;;1.27;100.00;101112.41;6056300;23;20458;-71
2024/01/07 04:24:31;;;;;;;5.93;5.40;;;;;;;0.17;100.00;100948.66;6050397;23;20015;-71
2024/01/07 04:26:57;;;;;;;4.53;4.30;;;;;;;1.14;100.00;101097.84;6055875;23;20506;-71
2024/01/07 04:29:24;;;;;;;5.00;4.70;;;;;;;1.05;100.00;101085.88;6052279;23;20023;-71
2024/01/07 04:31:50;;;;;;;9.07;6.22;;;;;;;1.18;100.00;101123.69;6054664;23;20030;-72
2024/01/07 04:34:17;;;;;;;5.20;4.75;;;;;;;0.95;100.00;101089.38;6056178;23;20047;-72
2024/01/07 04:36:43;;;;;;;5.05;4.65;;;;;;;1.19;100.00;101124.53;6028139;23;20027;-71
2024/01/07 04:39:10;;;;;;;7.50;5.57;;;;;;;0.84;100.00;101068.75;6051269;23;20414;-71
2024/01/07 04:41:37;;;;;;;7.20;4.45;;;;;;;1.25;100.00;101139.16;6024419;23;20043;-71
2024/01/07 04:44:03;;;;;;;3.80;3.55;;;;;;;1.23;100.00;101139.16;6050947;23;20010;-72
2024/01/07 04:46:34;;;;;;;5.45;4.95;;;;;;;0.55;100.00;101022.44;6007878;23;20031;-71
2024/01/07 04:49:00;;;;;;;6.78;6.28;;;;;;;0.57;100.00;101018.13;6045876;23;20082;-71
2024/01/07 04:51:27;;;;;;;4.22;3.92;;;;;;;0.99;100.00;101104.84;6056122;23;20025;-72
2024/01/07 04:53:53;;;;;;;6.07;5.57;;;;;;;0.77;100.00;101067.94;6052848;23;20382;-72
2024/01/07 04:56:20;;;;;;;5.90;5.40;;;;;;;1.04;100.00;101119.47;6032196;23;20022;-72
2024/01/07 04:58:46;;;;;;;4.22;4.03;;;;;;;0.96;100.00;101117.81;6056685;23;20026;-72
2024/01/07 05:01:12;;;;;;;7.03;6.05;;;;;;;0.66;100.00;101084.38;6026902;23;20097;-71
2024/01/07 05:03:39;;;;;;;5.65;5.30;;;;;;;0.30;100.00;101029.44;6031614;23;20457;-72
2024/01/07 05:06:09;;;;;;;5.05;4.65;;;;;;;0.79;100.00;101133.38;6054085;23;20061;-70
2024/01/07 05:08:37;;;;;;;6.30;5.70;;;;;;;0.35;100.00;101084.50;6027829;23;20027;-71
2024/01/07 05:11:04;;;;;;;7.50;6.90;;;;;;;0.65;100.00;101139.47;6056883;23;20523;-71
2024/01/07 05:13:30;;;;;;;6.55;6.05;;;;;;;-0.41;100.00;100968.66;6037713;23;20085;-71
2024/01/07 05:15:57;;;;;;;6.93;6.35;;;;;;;0.52;100.00;101128.31;6056245;23;20402;-72
2024/01/07 05:18:24;;;;;;;5.93;5.43;;;;;;;0.75;100.00;101182.50;6057504;23;20026;-71
2024/01/07 05:20:51;;;;;;;6.65;4.40;;;;;;;0.74;100.00;101191.09;6057442;23;20211;-72
2024/01/07 05:23:18;;;;;;;5.30;4.88;;;;;;;0.75;100.00;101196.25;6030100;23;20018;-71
2024/01/07 05:25:45;;;;;;;6.18;5.68;;;;;;;0.29;100.00;101131.84;6056246;23;20026;-71
2024/01/07 05:28:12;;;;;;;7.32;6.25;;;;;;;0.66;100.00;101196.31;6058173;23;20028;-74
2024/01/07 05:30:39;;;;;;;6.85;6.30;;;;;;;0.16;100.00;101131.03;6055408;23;20078;-70
2024/01/07 05:33:06;;;;;;;8.10;7.57;;;;;;;0.65;100.00;101215.25;6055745;23;20159;-71
2024/01/07 05:35:32;;;;;;;5.93;5.38;;;;;;;0.67;100.00;101226.44;6057704;23;20032;-71
2024/01/07 05:37:58;;;;;;;13.32;5.15;;;;;;;0.69;100.00;101229.00;6057836;23;20441;-71
2024/01/07 05:40:25;;;;;;;5.00;4.70;;;;;;;0.62;100.00;101227.28;6026754;23;20057;-70
2024/01/07 05:42:51;;;;;;;9.10;6.60;;;;;;;0.18;100.00;101146.50;6056962;23;20042;-70
2024/01/07 05:45:18;;;;;;;6.95;6.25;;;;;;;0.64;100.00;101225.56;6055613;23;20038;-71
2024/01/07 05:47:44;;;;;;;10.82;5.40;;;;;;;0.66;100.00;101240.22;6055854;23;20030;-71
2024/01/07 05:50:11;;;;;;;8.88;5.97;;;;;;;0.71;100.00;101243.63;6055598;23;20409;-71
2024/01/07 05:52:37;;;;;;;19.45;18.33;;;;;;;-0.42;100.00;101090.72;6006558;23;20031;-72
2024/01/07 05:55:05;;;;;;;9.23;7.10;;;;;;;0.10;100.00;101131.06;5856840;23;20038;-70
2024/01/07 05:57:31;;;;;;;5.82;5.07;;;;;;;0.66;100.00;101224.72;6056061;23;20010;-74
2024/01/07 05:59:58;;;;;;;15.18;6.32;;;;;;;0.67;100.00;101229.00;6027577;23;20084;-71
2024/01/07 06:02:24;;;;;;;5.97;5.47;;;;;;;0.16;100.00;101155.97;6025119;23;20028;-71
2024/01/07 06:04:51;;;;;;;5.90;5.38;;;;;;;0.71;100.00;101222.13;6031783;23;20337;-71
2024/01/07 06:07:18;;;;;;;6.85;5.68;;;;;;;0.74;100.00;101243.66;6027821;23;20010;-72
2024/01/07 06:09:44;;;;;;;6.22;5.05;;;;;;;0.78;100.00;101228.97;6027220;23;20006;-70
2024/01/07 06:12:11;;;;;;;6.07;5.57;;;;;;;0.30;100.00;101153.34;6058287;23;20032;-72
2024/01/07 06:14:37;;;;;;;13.00;5.05;;;;;;;0.67;100.00;101221.25;5999225;23;20262;-72
2024/01/07 06:17:03;;;;;;;7.25;6.75;;;;;;;-0.60;100.00;101018.56;6054249;23;20047;-68
2024/01/07 06:19:30;;;;;;;4.45;4.05;;;;;;;0.66;100.00;101218.69;6028252;23;20061;-71
2024/01/07 06:21:56;;;;;;;5.57;5.05;;;;;;;0.67;100.00;101216.09;6028488;23;20131;-71
2024/01/07 06:24:23;;;;;;;6.72;6.13;;;;;;;0.59;100.00;101203.19;6056771;23;20104;-71
2024/01/07 06:26:50;;;;;;;9.45;6.40;;;;;;;0.55;100.00;101193.75;6056105;23;20037;-72
2024/01/07 06:29:16;;;;;;;8.38;6.55;;;;;;;0.68;100.00;101214.38;6054641;23;20173;-71
2024/01/07 06:31:45;;;;;;;4.75;4.43;;;;;;;0.72;100.00;101213.50;6055439;23;20006;-72
2024/01/07 06:34:14;;;;;;;8.25;5.75;;;;;;;0.66;100.00;101213.50;6033906;23;20033;-71
2024/01/07 06:36:41;;;;;;;4.50;4.25;;;;;;;0.32;100.00;101172.28;6027355;23;20073;-71
2024/01/07 06:39:08;;;;;;;7.28;6.75;;;;;;;0.64;100.00;101218.66;6053080;23;20478;-71
2024/01/07 06:41:35;;;;;;;5.57;5.13;;;;;;;0.57;100.00;101229.91;6056536;23;20089;-71
2024/01/07 06:44:02;;;;;;;7.47;6.38;;;;;;;0.59;100.00;101218.69;6056839;23;20066;-72
2024/01/07 06:46:29;;;;;;;7.13;5.97;;;;;;;0.58;100.00;101221.28;6057255;23;20026;-71
2024/01/07 06:48:55;;;;;;;11.68;6.30;;;;;;;0.56;100.00;101210.09;6028371;23;20093;-71
2024/01/07 06:51:22;;;;;;;7.38;6.03;;;;;;;0.58;100.00;101221.28;6069213;18;20347;-73
2024/01/07 06:53:50;;;;;;;4.63;4.32;;;;;;;0.62;100.00;101222.97;6146919;23;20021;-74
2024/01/07 06:56:16;;;;;;;7.32;6.72;;;;;;;-0.83;100.00;100985.91;6151812;23;20663;-74
2024/01/07 06:58:44;;;;;;;7.03;5.03;;;;;;;0.56;100.00;101220.41;6149250;23;20664;-73
2024/01/07 07:01:11;;;;;;;9.68;8.88;;;;;;;0.22;100.00;101173.16;6156864;23;20020;-73
2024/01/07 07:03:40;;;;;;;8.52;5.07;;;;;;;0.52;100.00;101217.00;6122115;23;20021;-76
2024/01/07 07:06:06;;;;;;;11.80;6.60;;;;;;;0.48;100.00;101204.97;6146494;23;20062;-75
2024/01/07 07:08:33;;;;;;;4.88;4.55;;;;;;;-0.74;100.00;100989.31;6145532;23;20402;-73
2024/01/07 07:11:00;;;;;;;8.00;5.63;;;;;;;0.56;100.00;101223.00;6165937;23;20051;-73
2024/01/07 07:13:27;;;;;;;5.55;5.15;;;;;;;0.64;100.00;101208.34;6144085;23;20085;-74
2024/01/07 07:15:54;;;;;;;8.70;5.45;;;;;;;0.37;100.00;101166.25;6153017;23;20179;-75
2024/01/07 07:18:20;;;;;;;19.55;4.45;;;;;;;-0.07;100.00;101094.09;6150684;23;20087;-74
2024/01/07 07:20:47;;;;;;;6.18;5.68;;;;;;;-0.25;100.00;101067.47;6172792;23;20044;-75
2024/01/07 07:23:13;;;;;;;6.05;5.68;;;;;;;0.29;100.00;101160.25;6137488;23;20648;-75
2024/01/07 07:25:40;;;;;;;5.63;5.10;;;;;;;0.37;100.00;101163.66;6172976;23;20099;-73
2024/01/07 07:28:06;;;;;;;4.43;4.18;;;;;;;0.37;100.00;101171.41;6120664;23;20097;-74
2024/01/07 07:30:33;;;;;;;4.95;4.53;;;;;;;0.03;100.00;101097.53;6173086;23;20024;-73
2024/01/07 07:32:59;;;;;;;9.65;7.28;;;;;;;0.39;100.00;101158.50;6141137;23;20085;-74
2024/01/07 07:35:26;;;;;;;6.03;5.45;;;;;;;-0.03;100.00;101093.22;6176799;23;20048;-74
2024/01/07 07:37:52;;;;;;;8.48;5.10;;;;;;;0.07;100.00;101107.81;6125089;23;20079;-74
2024/01/07 07:40:19;;;;;;;5.13;4.75;;;;;;;0.31;100.00;101161.09;6148068;23;20020;-74
2024/01/07 07:42:46;;;;;;;5.95;5.43;;;;;;;0.65;100.00;101204.91;6147980;23;20013;-73
2024/01/07 07:45:12;;;;;;;7.93;7.22;;;;;;;0.38;100.00;101170.56;6129135;23;20046;-75
2024/01/07 07:47:44;;;;;;;5.90;5.28;;;;;;;0.08;100.00;101114.72;6146252;23;20546;-73
2024/01/07 07:50:11;;;;;;;6.28;5.75;;;;;;;0.57;100.00;101194.59;6148165;23;20768;-75
2024/01/07 07:52:38;;;;;;;5.90;4.47;;;;;;;-0.67;100.00;101011.66;6140034;23;20043;-75
2024/01/07 07:55:06;;;;;;;8.25;7.43;;;;;;;0.22;100.00;101142.19;6164167;23;20041;-75
2024/01/07 07:57:33;;;;;;;6.22;5.82;;;;;;;0.53;100.00;101197.19;6146627;23;20138;-73
2024/01/07 08:00:00;;;;;;;4.15;3.83;;;;;;;0.50;100.00;101198.06;6136860;23;20033;-73
2024/01/07 08:02:30;;;;;;;3.80;3.60;;;;;;;0.53;100.00;101213.53;6171647;23;20042;-73
2024/01/07 08:04:57;;;;;;;5.03;4.65;;;;;;;-1.58;100.00;100876.91;6125610;23;20463;-76
2024/01/07 08:07:24;;;;;;;9.85;6.82;;;;;;;0.18;100.00;101161.97;6163462;23;20087;-74
2024/01/07 08:09:51;;;;;;;6.78;5.50;;;;;;;0.47;100.00;101213.56;6132745;23;20029;-72
2024/01/07 08:12:18;;;;;;;3.33;3.20;;;;;;;0.47;100.00;101233.38;6164704;23;20153;-76
2024/01/07 08:14:44;;;;;;;11.93;6.95;;;;;;;0.47;100.00;101234.22;6144104;23;20005;-74
2024/01/07 08:17:10;;;;;;;6.75;6.25;;;;;;;0.42;100.00;101229.91;6147589;23;20036;-74
2024/01/07 08:19:37;;;;;;;5.75;5.25;;;;;;;0.49;100.00;101250.56;6145862;23;20012;-75
2024/01/07 08:22:04;;;;;;;8.57;5.80;;;;;;;0.47;100.00;101252.28;6117065;23;20021;-74
2024/01/07 08:24:31;;;;;;;4.45;4.07;;;;;;;0.44;100.00;101265.22;6144684;23;20147;-74
2024/01/07 08:26:57;;;;;;;6.90;6.28;;;;;;;0.46;100.00;101260.03;6135474;23;20029;-77
2024/01/07 08:29:24;;;;;;;5.82;5.22;;;;;;;0.42;100.00;101264.34;6141548;23;20087;-75
2024/01/07 08:31:50;;;;;;;4.53;4.18;;;;;;;-0.15;100.00;101176.66;6136269;23;20440;-73
2024/01/07 08:34:17;;;;;;;3.85;3.65;;;;;;;0.04;100.00;101225.66;6170758;23;20020;-75
2024/01/07 08:36:44;;;;;;;6.97;5.60;;;;;;;0.35;100.00;101278.13;6141504;23;20017;-73
2024/01/07 08:39:11;;;;;;;7.93;7.30;;;;;;;0.10;100.00;101243.72;6152159;23;20180;-74
2024/01/07 08:41:37;;;;;;;5.03;4.63;;;;;;;0.48;100.00;101307.38;6143810;23;20087;-73
2024/01/07 08:44:04;;;;;;;4.50;4.18;;;;;;;-0.10;100.00;101215.34;6141253;23;20035;-73
2024/01/07 08:46:30;;;;;;;5.28;4.93;;;;;;;0.44;100.00;101308.25;6172513;23;20084;-75
2024/01/07 08:48:57;;;;;;;9.35;6.30;;;;;;;0.39;100.00;101323.75;6145368;23;20021;-78
2024/01/07 08:51:24;;;;;;;6.75;6.25;;;;;;;0.13;100.00;101275.56;6164998;23;20024;-76
2024/01/07 08:53:50;;;;;;;4.53;4.22;;;;;;;-0.01;100.00;101264.38;6139844;23;20091;-76
2024/01/07 08:56:18;;;;;;;26.90;6.53;;;;;;;0.38;100.00;101320.31;6116307;23;20448;-77
2024/01/07 08:58:44;;;;;;;12.80;5.88;;;;;;;-0.01;100.00;101261.78;6156897;23;20132;-77
2024/01/07 09:01:11;;;;;;;7.07;6.65;;;;;;;0.32;100.00;101315.16;6141406;23;20468;-75
2024/01/07 09:03:39;;;;;;;5.30;4.45;;;;;;;0.11;100.00;101290.19;6157734;23;20009;-78
2024/01/07 09:06:06;;;;;;;6.57;5.20;;;;;;;-0.07;100.00;101262.66;6137815;23;20389;-74
2024/01/07 09:08:35;;;;;;;6.38;5.85;;;;;;;-0.38;100.00;101206.72;6145154;23;20041;-75
2024/01/07 09:11:06;;;;;;;5.28;4.88;;;;;;;-0.46;100.00;101189.53;6128396;23;20029;-75
2024/01/07 09:13:32;;;;;;;5.40;4.93;;;;;;;0.30;100.00;101308.25;6160674;23;20024;-74
2024/01/07 09:15:59;;;;;;;6.60;6.00;;;;;;;0.20;100.00;101291.88;6139152;23;20029;-74
2024/01/07 09:18:25;;;;;;;8.52;5.05;;;;;;;0.23;100.00;101291.91;6164090;23;20126;-75
2024/01/07 09:20:52;;;;;;;5.03;4.60;;;;;;;0.03;100.00;101260.06;6111902;23;20025;-74
2024/01/07 09:23:21;;;;;;;5.72;5.22;;;;;;;-0.20;100.00;101214.50;6136300;23;20025;-75
2024/01/07 09:25:49;;;;;;;5.15;4.85;;;;;;;0.19;100.00;101274.69;6164046;23;20052;-73
2024/01/07 09:28:15;;;;;;;6.78;4.97;;;;;;;-1.23;100.00;101029.69;6133615;23;20033;-74
2024/01/07 09:30:42;;;;;;;5.10;4.68;;;;;;;0.17;100.00;101256.63;6157810;23;20531;-73
2024/01/07 09:33:08;;;;;;;6.53;6.05;;;;;;;-0.27;100.00;101186.97;6112363;23;20021;-70
2024/01/07 09:35:35;;;;;;;4.15;3.83;;;;;;;-0.07;100.00;101199.88;6164994;23;20033;-71
2024/01/07 09:38:01;;;;;;;6.70;5.03;;;;;;;0.04;100.00;101223.06;6140827;23;20025;-71
2024/01/07 09:40:28;;;;;;;4.35;4.03;;;;;;;-0.97;100.00;101034.00;6169551;23;20636;-76
2024/01/07 09:42:55;;;;;;;4.40;3.72;;;;;;;-0.17;100.00;101157.75;6145704;23;20025;-75
2024/01/07 09:45:23;;;;;;;4.28;3.97;;;;;;;-0.43;100.00;101104.44;6133906;23;20020;-76
2024/01/07 09:47:50;;;;;;;3.80;3.58;;;;;;;-0.73;100.00;101065.78;6146414;23;20021;-75
2024/01/07 09:50:18;;;;;;;4.25;4.03;;;;;;;-0.15;100.00;101186.97;6165978;23;20017;-75
2024/01/07 09:52:45;;;;;;;4.35;3.95;;;;;;;-1.15;100.00;101045.13;6141243;23;20017;-77
2024/01/07 09:55:28;;;;;;;5.38;5.07;;;;;;;-0.46;100.00;101199.84;6145369;23;20086;-76
2024/01/07 09:57:54;;;;;;;3.63;3.42;;;;;;;-0.43;100.00;101230.78;6149907;23;20103;-75
2024/01/07 10:00:21;;;;;;;6.40;5.20;;;;;;;-0.79;100.00;101204.94;6161304;23;20128;-76
2024/01/07 10:02:48;;;;;;;6.72;4.80;;;;;;;-1.02;100.00;101198.00;6136543;23;20088;-76
2024/01/07 10:05:14;;;;;;;7.00;6.38;;;;;;;-0.32;100.00;101339.13;6170461;23;20017;-77
2024/01/07 10:07:41;;;;;;;7.65;3.78;;;;;;;-1.16;100.00;101207.38;6117631;23;20028;-76
2024/01/07 10:10:17;;;;;;;3.97;3.65;;;;;;;-0.81;100.00;101297.69;6163877;23;20838;-77
2024/01/07 10:12:48;;;;;;;5.05;4.75;;;;;;;-0.27;100.00;101385.56;6139183;23;20020;-77
2024/01/07 10:15:14;;;;;;;7.10;5.70;;;;;;;-1.64;100.00;101156.53;6165306;23;20135;-77
2024/01/07 10:17:42;;;;;;;3.13;3.03;;;;;;;-0.13;100.00;101404.53;6141356;23;20033;-77
2024/01/07 10:20:12;;;;;;;4.68;4.28;;;;;;;-0.05;100.00;101408.00;6140327;23;20118;-78
2024/01/07 10:22:39;;;;;;;4.40;4.05;;;;;;;-0.03;100.00;101414.00;6114309;23;20013;-76
2024/01/07 10:25:06;;;;;;;5.50;4.60;;;;;;;-0.25;100.00;101383.84;6168653;23;20032;-75
2024/01/07 10:27:35;;;;;;;6.25;4.00;;;;;;;-0.36;100.00;101357.16;6142549;23;20016;-73
2024/01/07 10:30:02;;;;;;;3.60;3.38;;;;;;;-0.09;100.00;101398.50;6160606;23;20040;-75
2024/01/07 10:32:29;;;;;;;6.05;3.85;;;;;;;-0.39;100.00;101347.69;6138192;23;20480;-76
2024/01/07 10:35:03;;;;;;;4.38;4.07;;;;;;;-0.04;100.00;101406.25;6169523;23;20017;-77
2024/01/07 10:37:31;;;;;;;7.78;7.15;;;;;;;-0.05;100.00;101391.66;6116918;23;21045;-76
2024/01/07 10:40:03;;;;;;;4.18;3.88;;;;;;;-0.04;100.00;101389.09;6139961;23;20644;-76
2024/01/07 10:42:33;;;;;;;6.13;5.38;;;;;;;-0.08;100.00;101369.28;6124396;23;20654;-76
2024/01/07 10:45:00;;;;;;;7.95;5.53;;;;;;;-0.07;100.00;101363.25;6167825;23;20060;-76
2024/01/07 10:47:31;;;;;;;3.88;3.58;;;;;;;-0.04;100.00;101345.22;6143048;23;20080;-76
2024/01/07 10:49:59;;;;;;;4.82;4.35;;;;;;;-0.41;100.00;101252.28;6150330;23;20375;-76
2024/01/07 10:52:29;;;;;;;3.85;3.55;;;;;;;-0.32;100.00;101251.47;6139276;23;20363;-76
2024/01/07 10:55:09;;;;;;;5.95;5.35;;;;;;;-0.46;100.00;101207.59;6150899;23;20039;-76
2024/01/07 10:57:47;;;;;;;4.70;4.30;;;;;;;0.19;100.00;101301.38;6130642;23;20885;-77
2024/01/07 11:00:20;;;;;;;13.65;8.68;;;;;;;-0.73;100.00;101130.22;6164868;23;20027;-78
2024/01/07 11:02:55;;;;;;;3.63;3.42;;;;;;;0.03;100.00;101272.97;6140473;23;20025;-75
2024/01/07 11:05:48;;;;;;;4.40;3.85;;;;;;;-0.35;100.00;101199.00;6141620;23;20024;-75
2024/01/07 11:08:31;;;;;;;4.82;4.45;;;;;;;-0.27;100.00;101185.25;6139007;23;20076;-74
2024/01/07 11:11:12;;;;;;;4.57;4.20;;;;;;;-0.57;100.00;101115.63;6164395;23;20509;-76
2024/01/07 11:13:42;;;;;;;5.00;4.57;;;;;;;-0.51;100.00;101101.00;6138685;23;20021;-73
2024/01/07 11:16:11;;;;;;;4.70;4.15;;;;;;;-0.36;100.00;101133.69;6178090;23;20048;-76
2024/01/07 11:18:59;;;;;;;4.88;4.32;;;;;;;-0.05;100.00;101143.97;6137157;23;20044;-73
2024/01/07 11:21:26;;;;;;;6.50;3.63;;;;;;;-0.57;100.00;101046.03;6143676;23;20017;-73